createdAt,value
2019-06-08T00:02:56.209Z,100110.54
2019-06-08T00:07:59.679Z,100130.69
2019-06-08T00:13:03.223Z,100130.86
2019-06-08T00:18:06.731Z,100121.05
2019-06-08T00:23:10.147Z,100138.41
2019-06-08T00:28:14.159Z,100169.72
2019-06-08T00:33:18.567Z,100177.75
2019-06-08T00:38:23.044Z,100180.20
2019-06-08T00:43:26.635Z,100194.45
2019-06-08T00:48:30.096Z,100191.77
2019-06-08T00:53:33.561Z,100202.92
2019-06-08T00:58:37.034Z,100205.89
2019-06-08T01:03:40.491Z,100201.53
2019-06-08T01:08:43.958Z,100210.81
2019-06-08T01:13:47.420Z,100237.31
2019-06-08T01:18:52.311Z,100229.56
2019-06-08T01:23:55.773Z,100223.91
2019-06-08T01:28:59.234Z,100262.70
2019-06-08T01:34:02.697Z,100258.85
2019-06-08T01:39:07.611Z,100257.90
2019-06-08T01:44:13.331Z,100291.37
2019-06-08T01:49:16.806Z,100324.16
2019-06-08T01:54:20.254Z,100304.32
2019-06-08T01:59:23.712Z,100279.83
2019-06-08T02:04:28.045Z,100324.45
2019-06-08T02:09:32.751Z,100317.75
2019-06-08T02:14:36.360Z,100297.39
2019-06-08T02:19:39.820Z,100285.94
2019-06-08T02:24:43.285Z,100269.06
2019-06-08T02:29:46.749Z,100292.16
2019-06-08T02:34:50.213Z,100291.81
2019-06-08T02:39:53.673Z,100302.63
2019-06-08T02:44:57.157Z,100294.42
2019-06-08T02:50:00.621Z,100271.77
2019-06-08T02:55:05.431Z,100266.80
2019-06-08T03:00:13.442Z,100269.34
2019-06-08T03:05:17.428Z,100279.27
2019-06-08T03:10:21.018Z,100287.30
2019-06-08T03:15:33.172Z,100287.41
2019-06-08T03:20:37.726Z,100284.80
2019-06-08T03:25:47.399Z,100299.44
2019-06-08T03:30:53.872Z,100300.95
2019-06-08T03:35:57.360Z,100309.15
2019-06-08T03:40:56.878Z,100318.13
2019-06-08T03:46:00.343Z,100322.74
2019-06-08T03:51:03.807Z,100353.67
2019-06-08T03:56:07.275Z,100368.14
2019-06-08T04:01:10.736Z,100364.22
2019-06-08T04:06:14.200Z,100356.03
2019-06-08T04:11:17.666Z,100361.34
2019-06-08T04:16:22.201Z,100371.27
2019-06-08T04:21:25.662Z,100376.91
2019-06-08T04:26:29.125Z,100388.24
2019-06-08T04:31:32.589Z,100418.92
2019-06-08T04:36:36.045Z,100426.33
2019-06-08T04:41:40.708Z,100433.55
2019-06-08T04:46:45.494Z,100427.54
2019-06-08T04:51:49.890Z,100428.76
2019-06-08T04:56:53.351Z,100430.94
2019-06-08T05:01:56.816Z,100437.73
2019-06-08T05:07:00.268Z,100450.75
2019-06-08T05:12:03.729Z,100464.22
2019-06-08T05:17:07.194Z,100469.30
2019-06-08T05:22:10.648Z,100447.34
2019-06-08T05:27:14.108Z,100440.98
2019-06-08T05:32:17.569Z,100433.23
2019-06-08T05:37:21.031Z,100429.05
2019-06-08T05:42:24.491Z,100442.98
2019-06-08T05:47:27.954Z,100473.92
2019-06-08T05:52:31.425Z,100479.84
2019-06-08T05:57:34.889Z,100477.14
2019-06-08T06:02:38.391Z,100501.91
2019-06-08T06:07:42.672Z,100511.99
2019-06-08T06:12:46.938Z,100517.06
2019-06-08T06:17:51.604Z,100555.64
2019-06-08T06:22:58.444Z,100557.49
2019-06-08T06:28:00.376Z,100548.77
2019-06-08T06:33:03.836Z,100556.78
2019-06-08T06:38:07.301Z,100572.47
2019-06-08T06:43:10.767Z,100580.66
2019-06-08T06:48:14.230Z,100587.45
2019-06-08T06:53:17.704Z,100593.02
2019-06-08T06:58:21.160Z,100595.63
2019-06-08T07:03:24.623Z,100615.33
2019-06-08T07:08:28.092Z,100620.38
2019-06-08T07:13:33.069Z,100611.47
2019-06-08T07:18:36.601Z,100620.35
2019-06-08T07:23:40.069Z,100603.27
2019-06-08T07:28:43.567Z,100585.59
2019-06-08T07:33:48.380Z,100564.36
2019-06-08T07:38:53.363Z,100555.20
2019-06-08T07:43:56.853Z,100580.01
2019-06-08T07:49:00.326Z,100582.53
2019-06-08T07:54:03.782Z,100607.80
2019-06-08T07:59:07.242Z,100623.64
2019-06-08T08:04:10.705Z,100617.80
2019-06-08T08:09:14.171Z,100626.61
2019-06-08T08:14:17.632Z,100640.99
2019-06-08T08:19:21.103Z,100635.63
2019-06-08T08:24:24.572Z,100628.61
2019-06-08T08:29:31.183Z,100631.66
2019-06-08T08:34:33.228Z,100655.13
2019-06-08T08:39:37.649Z,100651.70
2019-06-08T08:44:41.339Z,100665.14
2019-06-08T08:49:44.804Z,100658.98
2019-06-08T08:54:48.267Z,100658.82
2019-06-08T08:59:53.474Z,100667.87
2019-06-08T09:05:00.047Z,100658.38
2019-06-08T09:10:03.614Z,100640.97
2019-06-08T09:15:08.634Z,100640.97
2019-06-08T09:20:15.895Z,100679.23
2019-06-08T09:25:18.366Z,100673.84
2019-06-08T09:30:21.985Z,100684.06
2019-06-08T09:35:27.877Z,100697.20
2019-06-08T09:40:32.622Z,100708.95
2019-06-08T09:45:38.060Z,100703.62
2019-06-08T09:50:41.058Z,100698.03
2019-06-08T09:55:44.522Z,100705.62
2019-06-08T10:00:48.778Z,100721.48
2019-06-08T10:05:52.420Z,100721.30
2019-06-08T10:10:58.762Z,100721.30
2019-06-08T10:16:03.694Z,100724.33
2019-06-08T10:21:09.370Z,100723.19
2019-06-08T10:26:12.111Z,100711.49
2019-06-08T10:31:17.472Z,100724.31
2019-06-08T10:36:20.757Z,100731.02
2019-06-08T10:41:24.243Z,100729.98
2019-06-08T10:46:27.721Z,100717.45
2019-06-08T10:51:31.182Z,100716.77
2019-06-08T10:56:34.633Z,100705.77
2019-06-08T11:01:38.653Z,100709.25
2019-06-08T11:06:42.210Z,100710.46
2019-06-08T11:11:47.952Z,100702.62
2019-06-08T11:16:50.886Z,100704.22
2019-06-08T11:21:54.372Z,100682.84
2019-06-08T11:26:59.704Z,100682.41
2019-06-08T11:32:04.208Z,100685.38
2019-06-08T11:37:11.872Z,100697.34
2019-06-08T11:42:13.664Z,100705.45
2019-06-08T11:47:18.169Z,100696.70
2019-06-08T11:52:21.852Z,100714.23
2019-06-08T11:57:25.565Z,100715.27
2019-06-08T12:02:29.024Z,100719.47
2019-06-08T12:07:32.491Z,100720.94
2019-06-08T12:12:38.456Z,100724.44
2019-06-08T12:17:41.152Z,100717.11
2019-06-08T12:22:44.613Z,100738.30
2019-06-08T12:27:48.831Z,100739.94
2019-06-08T12:32:53.324Z,100724.16
2019-06-08T12:37:58.072Z,100726.41
2019-06-08T12:43:01.791Z,100734.09
2019-06-08T12:48:05.252Z,100734.60
2019-06-08T12:53:13.421Z,100735.34
2019-06-08T12:58:14.455Z,100743.47
2019-06-08T13:03:18.831Z,100739.27
2019-06-08T13:08:22.361Z,100747.37
2019-06-08T13:13:28.078Z,100748.51
2019-06-08T13:18:31.021Z,100752.88
2019-06-08T13:23:34.490Z,100759.14
2019-06-08T13:28:38.504Z,100750.07
2019-06-08T13:33:41.988Z,100747.45
2019-06-08T13:38:45.455Z,100751.80
2019-06-08T13:43:48.923Z,100765.86
2019-06-08T13:48:52.385Z,100772.91
2019-06-08T13:53:58.090Z,100780.42
2019-06-08T13:59:01.042Z,100764.44
2019-06-08T14:04:04.645Z,100772.54
2019-06-08T14:09:08.399Z,100772.36
2019-06-08T14:14:11.934Z,100761.97
2019-06-08T14:19:16.559Z,100773.76
2019-06-08T14:24:26.352Z,100772.22
2019-06-08T14:29:26.027Z,100753.89
2019-06-08T14:34:31.237Z,100773.74
2019-06-08T14:39:34.905Z,100778.55
2019-06-08T14:44:38.366Z,100769.11
2019-06-08T14:49:45.761Z,100771.73
2019-06-08T14:54:51.159Z,100773.31
2019-06-08T14:59:59.064Z,100773.31
2019-06-08T15:04:59.595Z,100768.69
2019-06-08T15:10:03.312Z,100780.47
2019-06-08T15:15:10.747Z,100778.64
2019-06-08T15:20:13.056Z,100784.66
2019-06-08T15:25:18.542Z,100776.10
2019-06-08T15:30:23.069Z,100775.31
2019-06-08T15:35:27.311Z,100774.70
2019-06-08T15:40:31.866Z,100775.49
2019-06-08T15:45:35.445Z,100775.49
2019-06-08T15:50:38.904Z,100778.28
2019-06-08T15:55:42.367Z,100781.87
2019-06-08T16:00:46.196Z,100779.25
2019-06-08T16:05:49.666Z,100779.86
2019-06-08T16:10:53.135Z,100775.84
2019-06-08T16:15:56.590Z,100770.86
2019-06-08T16:21:00.050Z,100776.45
2019-06-08T16:26:03.692Z,100773.38
2019-06-08T16:31:07.158Z,100771.05
2019-06-08T16:36:10.621Z,100773.05
2019-06-08T16:41:14.081Z,100772.61
2019-06-08T16:46:17.540Z,100777.24
2019-06-08T16:51:21.015Z,100785.63
2019-06-08T16:56:24.467Z,100783.62
2019-06-08T17:01:28.392Z,100776.02
2019-06-08T17:06:33.188Z,100788.59
2019-06-08T17:11:37.131Z,100787.20
2019-06-08T17:16:40.719Z,100788.73
2019-06-08T17:21:44.208Z,100790.92
2019-06-08T17:26:47.668Z,100788.59
2019-06-08T17:31:51.133Z,100790.42
2019-06-08T17:36:54.594Z,100790.08
2019-06-08T17:41:58.057Z,100790.33
2019-06-08T17:47:01.522Z,100789.83
2019-06-08T17:52:04.988Z,100797.42
2019-06-08T17:57:08.449Z,100800.83
2019-06-08T18:02:15.377Z,100804.06
2019-06-08T18:07:17.260Z,100811.48
2019-06-08T18:12:20.736Z,100817.34
2019-06-08T18:17:24.215Z,100823.73
2019-06-08T18:22:27.702Z,100828.34
2019-06-08T18:27:31.644Z,100835.41
2019-06-08T18:32:35.102Z,100845.80
2019-06-08T18:37:40.897Z,100851.05
2019-06-08T18:42:44.611Z,100853.67
2019-06-08T18:47:49.088Z,100855.32
2019-06-08T18:52:52.622Z,100854.71
2019-06-08T18:57:57.131Z,100860.30
2019-06-08T19:03:00.824Z,100869.47
2019-06-08T19:08:10.000Z,100873.48
2019-06-08T19:13:13.483Z,100880.03
2019-06-08T19:18:17.861Z,100890.34
2019-06-08T19:23:21.610Z,100896.97
2019-06-08T19:28:35.867Z,100907.42
2019-06-08T19:33:33.534Z,100913.02
2019-06-08T19:38:38.468Z,100918.78
2019-06-08T19:43:43.600Z,100932.73
2019-06-08T19:48:53.213Z,100933.44
2019-06-08T19:53:54.927Z,100945.47
2019-06-08T19:59:03.947Z,100952.13
2019-06-08T20:04:02.936Z,100963.96
2019-06-08T20:09:08.537Z,100967.25
2019-06-08T20:14:11.979Z,100971.08
2019-06-08T20:19:17.601Z,100982.11
2019-06-08T20:24:20.625Z,100978.11
2019-06-08T20:29:24.086Z,100992.38
2019-06-08T20:34:27.555Z,100994.17
2019-06-08T20:39:31.017Z,100996.36
2019-06-08T20:44:34.543Z,100987.28
2019-06-08T20:49:38.007Z,100997.30
2019-06-08T20:54:42.688Z,100993.20
2019-06-08T20:59:48.130Z,101003.81
2019-06-08T21:04:54.391Z,101011.83
2019-06-08T21:09:58.146Z,101012.73
2019-06-08T21:15:01.718Z,101014.84
2019-06-08T21:20:08.487Z,101014.65
2019-06-08T21:25:11.930Z,101018.47
2019-06-08T21:30:21.584Z,101019.17
2019-06-08T21:35:20.706Z,101018.98
2019-06-08T21:40:24.165Z,101022.38
2019-06-08T21:45:27.752Z,101016.70
2019-06-08T21:50:31.166Z,101011.55
2019-06-08T21:55:34.633Z,101010.20
2019-06-08T22:00:42.722Z,101006.89
2019-06-08T22:05:43.458Z,101003.59
2019-06-08T22:10:48.119Z,101006.99
2019-06-08T22:15:52.903Z,101003.23
2019-06-08T22:20:59.416Z,101006.89
2019-06-08T22:26:03.648Z,101009.46
2019-06-08T22:31:08.007Z,101019.36
2019-06-08T22:36:12.726Z,101021.08
2019-06-08T22:41:17.349Z,101018.97
2019-06-08T22:46:20.973Z,101022.02
2019-06-08T22:51:24.437Z,101030.47
2019-06-08T22:56:27.903Z,101026.78
2019-06-08T23:01:31.359Z,101036.03
2019-06-08T23:06:34.822Z,101035.33
2019-06-08T23:11:38.279Z,101041.51
2019-06-08T23:16:41.739Z,101034.66
2019-06-08T23:21:47.388Z,101036.96
2019-06-08T23:26:50.391Z,101044.84
2019-06-08T23:31:53.924Z,101046.72
2019-06-08T23:37:00.896Z,101047.55
2019-06-08T23:42:03.649Z,101049.17
2019-06-08T23:47:08.138Z,101056.41
2019-06-08T23:52:11.874Z,101060.44
2019-06-08T23:57:17.883Z,101057.30
